createdAt,value
2019-02-07T00:00:28.297Z,89.24
2019-02-07T00:03:01.095Z,89.06
2019-02-07T00:05:32.831Z,89.04
2019-02-07T00:08:04.503Z,88.76
2019-02-07T00:10:36.128Z,88.73
2019-02-07T00:13:07.649Z,88.48
2019-02-07T00:15:39.458Z,88.55
2019-02-07T00:18:11.047Z,88.61
2019-02-07T00:20:42.692Z,88.58
2019-02-07T00:23:14.402Z,88.69
2019-02-07T00:25:46.053Z,88.48
2019-02-07T00:28:18.683Z,88.46
2019-02-07T00:30:50.132Z,88.84
2019-02-07T00:33:21.737Z,88.90
2019-02-07T00:35:53.461Z,88.99
2019-02-07T00:38:24.898Z,88.85
2019-02-07T00:40:56.592Z,87.68
2019-02-07T00:43:28.038Z,87.59
2019-02-07T00:45:59.754Z,87.78
2019-02-07T00:48:31.814Z,87.79
2019-02-07T00:51:03.612Z,87.87
2019-02-07T00:53:35.060Z,88.04
2019-02-07T00:56:06.791Z,88.15
2019-02-07T00:58:38.470Z,87.85
2019-02-07T01:01:10.744Z,87.00
2019-02-07T01:03:42.333Z,86.28
2019-02-07T01:06:13.964Z,86.02
2019-02-07T01:08:45.306Z,86.39
2019-02-07T01:11:17.156Z,86.46
2019-02-07T01:13:49.318Z,86.40
2019-02-07T01:16:20.885Z,86.08
2019-02-07T01:18:52.406Z,86.48
2019-02-07T01:21:25.087Z,87.30
2019-02-07T01:23:56.754Z,87.01
2019-02-07T01:26:28.239Z,86.38
2019-02-07T01:28:59.645Z,86.17
2019-02-07T01:31:31.390Z,85.70
2019-02-07T01:34:02.820Z,85.99
2019-02-07T01:36:35.195Z,86.24
2019-02-07T01:39:09.640Z,85.90
2019-02-07T01:41:41.116Z,85.39
2019-02-07T01:44:12.583Z,85.09
2019-02-07T01:46:44.074Z,85.07
2019-02-07T01:49:15.643Z,85.28
2019-02-07T01:51:47.484Z,85.05
2019-02-07T01:54:19.338Z,85.62
2019-02-07T01:56:50.974Z,86.20
2019-02-07T01:59:23.626Z,85.96
2019-02-07T02:01:55.195Z,85.27
2019-02-07T02:04:26.586Z,84.86
2019-02-07T02:06:58.058Z,84.79
2019-02-07T02:09:29.463Z,84.74
2019-02-07T02:12:01.263Z,84.85
2019-02-07T02:14:32.823Z,84.61
2019-02-07T02:17:04.498Z,84.54
2019-02-07T02:19:36.380Z,85.04
2019-02-07T02:22:07.982Z,85.32
2019-02-07T02:24:39.649Z,84.94
2019-02-07T02:27:11.039Z,84.99
2019-02-07T02:29:42.857Z,84.52
2019-02-07T02:32:14.941Z,84.30
2019-02-07T02:34:46.561Z,83.75
2019-02-07T02:37:17.940Z,83.98
2019-02-07T02:39:49.674Z,83.70
2019-02-07T02:42:21.574Z,83.75
2019-02-07T02:44:52.975Z,83.98
2019-02-07T02:47:24.657Z,84.00
2019-02-07T02:49:56.579Z,83.94
2019-02-07T02:52:28.145Z,84.20
2019-02-07T02:55:00.574Z,84.11
2019-02-07T02:57:32.008Z,84.05
2019-02-07T03:00:05.105Z,82.96
2019-02-07T03:02:54.170Z,83.35
2019-02-07T03:05:44.590Z,82.28
2019-02-07T03:08:24.308Z,81.88
2019-02-07T03:11:33.182Z,81.11
2019-02-07T03:14:33.607Z,80.73
2019-02-07T03:17:27.291Z,80.79
2019-02-07T03:20:17.806Z,80.95
2019-02-07T03:23:08.784Z,81.52
2019-02-07T03:25:58.940Z,81.50
2019-02-07T03:28:56.348Z,81.84
2019-02-07T03:31:45.437Z,81.59
2019-02-07T03:34:43.019Z,81.70
2019-02-07T03:37:34.170Z,81.77
2019-02-07T03:40:37.805Z,82.09
2019-02-07T03:43:27.292Z,82.11
2019-02-07T03:46:29.512Z,82.08
2019-02-07T03:49:19.717Z,82.18
2019-02-07T03:52:08.782Z,82.05
2019-02-07T03:54:57.608Z,82.16
2019-02-07T03:57:50.811Z,82.23
2019-02-07T04:00:38.524Z,82.31
2019-02-07T04:03:31.684Z,82.37
2019-02-07T04:06:21.979Z,82.46
2019-02-07T04:09:12.382Z,82.71
2019-02-07T04:12:05.635Z,83.14
2019-02-07T04:14:58.702Z,83.28
2019-02-07T04:17:47.289Z,82.92
2019-02-07T04:20:48.492Z,83.05
2019-02-07T04:23:42.387Z,83.10
2019-02-07T04:26:32.589Z,83.20
2019-02-07T04:29:24.208Z,83.53
2019-02-07T04:32:23.591Z,82.91
2019-02-07T04:35:16.957Z,82.57
2019-02-07T04:38:07.509Z,82.34
2019-02-07T04:40:57.789Z,82.14
2019-02-07T04:43:49.594Z,82.13
2019-02-07T04:46:38.220Z,82.17
2019-02-07T04:49:28.643Z,81.94
2019-02-07T04:52:17.996Z,81.64
2019-02-07T04:55:17.474Z,82.00
2019-02-07T04:58:06.174Z,82.20
2019-02-07T05:01:05.618Z,82.41
2019-02-07T05:03:54.172Z,82.07
2019-02-07T05:06:40.139Z,81.79
2019-02-07T05:09:30.971Z,81.66
2019-02-07T05:12:12.897Z,81.31
2019-02-07T05:14:59.343Z,81.91
2019-02-07T05:17:55.437Z,81.86
2019-02-07T05:20:48.401Z,81.97
2019-02-07T05:23:53.466Z,81.97
2019-02-07T05:26:44.242Z,81.66
2019-02-07T05:29:40.586Z,81.80
2019-02-07T05:32:26.926Z,81.89
2019-02-07T05:35:17.139Z,81.84
2019-02-07T05:38:19.419Z,81.74
2019-02-07T05:41:08.429Z,82.02
2019-02-07T05:44:11.588Z,82.24
2019-02-07T05:47:07.655Z,82.49
2019-02-07T05:49:51.115Z,82.31
2019-02-07T05:52:40.013Z,82.00
2019-02-07T05:55:29.585Z,82.39
2019-02-07T05:58:29.203Z,81.68
2019-02-07T06:01:17.070Z,81.73
2019-02-07T06:04:05.682Z,81.92
2019-02-07T06:06:59.262Z,82.16
2019-02-07T06:09:56.007Z,81.66
2019-02-07T06:12:52.426Z,81.16
2019-02-07T06:15:56.926Z,81.16
2019-02-07T06:18:54.104Z,80.78
2019-02-07T06:21:53.202Z,81.02
2019-02-07T06:24:45.552Z,80.89
2019-02-07T06:27:36.072Z,80.29
2019-02-07T06:30:27.159Z,79.49
2019-02-07T06:33:26.357Z,79.65
2019-02-07T06:36:15.141Z,78.80
2019-02-07T06:39:04.781Z,78.01
2019-02-07T06:42:00.928Z,76.74
2019-02-07T06:44:52.130Z,75.90
2019-02-07T06:47:41.309Z,75.02
2019-02-07T06:50:30.275Z,75.10
2019-02-07T06:53:19.338Z,75.19
2019-02-07T06:56:06.033Z,75.79
2019-02-07T06:59:02.271Z,76.71
2019-02-07T07:01:55.292Z,77.45
2019-02-07T07:04:36.704Z,77.24
2019-02-07T07:07:26.787Z,78.12
2019-02-07T07:10:11.644Z,77.81
2019-02-07T07:13:14.233Z,77.71
2019-02-07T07:16:13.744Z,77.23
2019-02-07T07:19:19.224Z,77.93
2019-02-07T07:22:09.797Z,78.24
2019-02-07T07:24:58.420Z,78.98
2019-02-07T07:27:47.555Z,78.18
2019-02-07T07:30:35.305Z,77.26
2019-02-07T07:33:34.757Z,75.87
2019-02-07T07:36:24.463Z,77.19
2019-02-07T07:39:14.720Z,77.06
2019-02-07T07:42:05.134Z,76.57
2019-02-07T07:44:53.841Z,76.19
2019-02-07T07:47:42.728Z,74.98
2019-02-07T07:50:42.346Z,75.98
2019-02-07T07:53:37.656Z,73.65
2019-02-07T07:56:36.979Z,73.03
2019-02-07T07:59:42.497Z,74.17
2019-02-07T08:02:44.988Z,75.85
2019-02-07T08:05:34.270Z,77.08
2019-02-07T08:08:23.211Z,77.80
2019-02-07T08:10:59.859Z,78.29
2019-02-07T08:13:52.734Z,78.53
2019-02-07T08:16:36.062Z,79.23
2019-02-07T08:19:27.590Z,79.89
2019-02-07T08:22:10.995Z,80.40
2019-02-07T08:25:07.148Z,80.57
2019-02-07T08:27:56.321Z,80.79
2019-02-07T08:30:46.680Z,80.47
2019-02-07T08:33:31.608Z,80.80
2019-02-07T08:36:20.642Z,79.74
2019-02-07T08:39:04.515Z,79.78
2019-02-07T08:41:53.753Z,79.34
2019-02-07T08:44:44.246Z,77.73
2019-02-07T08:47:58.343Z,75.97
2019-02-07T08:50:40.379Z,75.90
2019-02-07T08:53:39.692Z,75.31
2019-02-07T08:56:26.413Z,75.36
2019-02-07T08:59:25.813Z,75.74
2019-02-07T09:02:14.933Z,75.70
2019-02-07T09:05:11.646Z,75.18
2019-02-07T09:08:07.769Z,76.24
2019-02-07T09:10:56.924Z,74.55
2019-02-07T09:13:47.112Z,74.01
2019-02-07T09:16:52.931Z,75.63
2019-02-07T09:19:42.733Z,75.15
2019-02-07T09:22:35.894Z,74.91
2019-02-07T09:25:34.274Z,75.61
2019-02-07T09:28:20.575Z,75.39
2019-02-07T09:31:09.690Z,75.64
2019-02-07T09:34:07.027Z,75.25
2019-02-07T09:36:57.029Z,74.51
2019-02-07T09:39:47.375Z,72.88
2019-02-07T09:42:56.510Z,71.83
2019-02-07T09:45:47.110Z,71.28
2019-02-07T09:48:35.912Z,70.93
2019-02-07T09:51:29.788Z,72.04
2019-02-07T09:54:31.816Z,72.56
2019-02-07T09:57:18.691Z,73.13
2019-02-07T10:00:21.280Z,71.15
2019-02-07T10:03:05.762Z,71.22
2019-02-07T10:05:54.618Z,71.64
2019-02-07T10:08:43.482Z,71.45
2019-02-07T10:11:52.125Z,71.89
2019-02-07T10:14:41.843Z,69.28
2019-02-07T10:17:35.567Z,71.94
2019-02-07T10:20:29.941Z,71.09
2019-02-07T10:23:26.324Z,69.82
2019-02-07T10:26:17.290Z,68.47
2019-02-07T10:29:14.034Z,68.28
2019-02-07T10:32:10.822Z,68.00
2019-02-07T10:35:07.226Z,68.76
2019-02-07T10:37:56.141Z,68.86
2019-02-07T10:40:38.836Z,67.70
2019-02-07T10:43:47.812Z,66.73
2019-02-07T10:46:41.320Z,66.28
2019-02-07T10:49:31.782Z,66.16
2019-02-07T10:52:40.601Z,65.89
2019-02-07T10:55:37.055Z,66.66
2019-02-07T10:58:26.028Z,66.30
2019-02-07T11:01:19.301Z,65.82
2019-02-07T11:04:28.394Z,66.14
2019-02-07T11:07:31.076Z,65.67
2019-02-07T11:10:36.258Z,66.05
2019-02-07T11:13:30.102Z,66.58
2019-02-07T11:16:35.348Z,67.65
2019-02-07T11:19:24.354Z,68.54
2019-02-07T11:22:13.198Z,68.12
2019-02-07T11:25:18.722Z,68.13
2019-02-07T11:28:10.531Z,67.49
2019-02-07T11:31:07.851Z,67.38
2019-02-07T11:34:04.431Z,65.88
2019-02-07T11:36:55.247Z,67.06
2019-02-07T11:39:44.796Z,66.90
2019-02-07T11:42:44.321Z,67.47
2019-02-07T11:45:33.694Z,67.37
2019-02-07T11:48:22.771Z,67.23
2019-02-07T11:51:16.012Z,66.45
2019-02-07T11:54:06.546Z,66.88
2019-02-07T11:57:09.259Z,65.05
2019-02-07T12:00:14.993Z,65.62
2019-02-07T12:03:04.319Z,66.41
2019-02-07T12:06:03.808Z,66.67
2019-02-07T12:09:00.182Z,65.57
2019-02-07T12:11:59.876Z,65.78
2019-02-07T12:15:08.407Z,66.80
2019-02-07T12:18:05.825Z,65.09
2019-02-07T12:20:55.019Z,65.56
2019-02-07T12:23:44.206Z,66.15
2019-02-07T12:26:50.025Z,65.14
2019-02-07T12:29:30.601Z,66.03
2019-02-07T12:32:16.700Z,66.30
2019-02-07T12:35:09.965Z,66.42
2019-02-07T12:38:00.258Z,67.36
2019-02-07T12:40:44.610Z,67.62
2019-02-07T12:43:53.232Z,66.87
2019-02-07T12:46:36.988Z,66.76
2019-02-07T12:49:29.196Z,65.63
2019-02-07T12:52:24.005Z,65.91
2019-02-07T12:55:20.402Z,65.31
2019-02-07T12:58:20.839Z,65.71
2019-02-07T13:01:10.052Z,66.10
2019-02-07T13:03:56.028Z,65.96
2019-02-07T13:06:45.709Z,65.87
2019-02-07T13:09:36.930Z,66.46
2019-02-07T13:12:40.731Z,66.23
2019-02-07T13:15:32.550Z,66.62
2019-02-07T13:18:41.306Z,65.96
2019-02-07T13:21:39.294Z,66.03
2019-02-07T13:24:32.623Z,66.74
2019-02-07T13:27:22.137Z,67.31
2019-02-07T13:30:12.488Z,67.17
2019-02-07T13:33:05.858Z,68.61
2019-02-07T13:36:11.557Z,67.76
2019-02-07T13:39:05.197Z,66.89
2019-02-07T13:41:59.460Z,67.90
2019-02-07T13:44:49.152Z,67.93
2019-02-07T13:47:51.512Z,68.25
2019-02-07T13:50:47.854Z,67.91
2019-02-07T13:53:41.224Z,67.65
2019-02-07T13:56:39.789Z,67.84
2019-02-07T13:59:40.531Z,67.64
2019-02-07T14:02:33.708Z,67.47
2019-02-07T14:05:34.429Z,67.79
2019-02-07T14:08:23.424Z,67.33
2019-02-07T14:11:13.387Z,67.56
2019-02-07T14:14:04.288Z,67.50
2019-02-07T14:16:54.709Z,67.04
2019-02-07T14:19:47.845Z,66.88
2019-02-07T14:22:39.673Z,66.68
2019-02-07T14:25:29.251Z,67.09
2019-02-07T14:28:18.003Z,67.35
2019-02-07T14:31:16.386Z,66.90
2019-02-07T14:34:24.700Z,67.20
2019-02-07T14:37:13.391Z,67.51
2019-02-07T14:40:03.960Z,66.78
2019-02-07T14:42:54.553Z,67.07
2019-02-07T14:45:50.589Z,66.92
2019-02-07T14:48:25.945Z,67.18
2019-02-07T14:50:57.515Z,67.23
2019-02-07T14:53:28.922Z,67.71
2019-02-07T14:56:00.543Z,67.02
2019-02-07T14:58:31.903Z,67.39
2019-02-07T15:01:03.442Z,66.45
2019-02-07T15:03:34.986Z,66.68
2019-02-07T15:06:06.790Z,67.87
2019-02-07T15:08:38.145Z,67.91
2019-02-07T15:11:09.814Z,67.62
2019-02-07T15:13:41.473Z,67.53
2019-02-07T15:16:13.074Z,67.77
2019-02-07T15:18:46.184Z,67.65
2019-02-07T15:21:18.786Z,67.32
2019-02-07T15:23:50.360Z,67.17
2019-02-07T15:26:21.918Z,68.20
2019-02-07T15:28:53.988Z,67.97
2019-02-07T15:31:25.640Z,68.76
2019-02-07T15:33:57.058Z,68.94
2019-02-07T15:36:28.294Z,68.76
2019-02-07T15:38:59.920Z,69.17
2019-02-07T15:41:31.324Z,69.55
2019-02-07T15:44:02.704Z,69.75
2019-02-07T15:46:34.325Z,69.88
2019-02-07T15:49:05.803Z,69.97
2019-02-07T15:51:37.507Z,69.54
2019-02-07T15:54:09.590Z,69.19
2019-02-07T15:56:41.354Z,70.09
2019-02-07T15:59:44.208Z,70.32
2019-02-07T16:02:28.300Z,71.04
2019-02-07T16:05:02.246Z,71.16
2019-02-07T16:07:33.953Z,70.64
2019-02-07T16:10:08.696Z,71.21
2019-02-07T16:12:40.174Z,71.00
2019-02-07T16:15:12.358Z,71.68
2019-02-07T16:17:43.796Z,72.20
2019-02-07T16:20:17.040Z,72.23
2019-02-07T16:22:50.169Z,72.08
2019-02-07T16:25:21.825Z,71.98
2019-02-07T16:27:53.582Z,71.32
2019-02-07T16:30:25.499Z,71.41
2019-02-07T16:32:57.372Z,70.87
2019-02-07T16:35:28.910Z,71.81
2019-02-07T16:38:00.271Z,72.04
2019-02-07T16:40:31.887Z,71.90
2019-02-07T16:43:03.509Z,71.51
2019-02-07T16:45:35.128Z,71.39
2019-02-07T16:48:06.855Z,71.73
2019-02-07T16:50:38.535Z,70.90
2019-02-07T16:53:09.956Z,70.86
2019-02-07T16:55:41.483Z,70.85
2019-02-07T16:58:12.774Z,70.77
2019-02-07T17:00:44.917Z,71.51
2019-02-07T17:03:16.360Z,71.86
2019-02-07T17:05:48.009Z,71.54
2019-02-07T17:08:19.543Z,71.51
2019-02-07T17:10:51.316Z,70.67
2019-02-07T17:13:23.263Z,70.89
2019-02-07T17:15:54.632Z,70.67
2019-02-07T17:18:26.163Z,70.85
2019-02-07T17:20:57.615Z,71.57
2019-02-07T17:23:29.809Z,72.08
2019-02-07T17:26:01.742Z,71.82
2019-02-07T17:28:34.333Z,72.07
2019-02-07T17:31:06.194Z,72.40
2019-02-07T17:33:37.806Z,72.84
2019-02-07T17:36:09.214Z,72.58
2019-02-07T17:38:41.030Z,73.01
2019-02-07T17:41:12.708Z,72.75
2019-02-07T17:43:44.462Z,72.60
2019-02-07T17:46:16.001Z,72.83
2019-02-07T17:48:47.467Z,73.84
2019-02-07T17:51:23.321Z,73.92
2019-02-07T17:53:52.814Z,73.62
2019-02-07T17:56:24.145Z,73.30
2019-02-07T17:58:56.536Z,72.93
2019-02-07T18:01:28.016Z,72.98
2019-02-07T18:03:59.961Z,73.58
2019-02-07T18:06:31.508Z,72.87
2019-02-07T18:09:04.134Z,73.39
2019-02-07T18:11:37.230Z,73.32
2019-02-07T18:14:08.902Z,73.17
2019-02-07T18:16:40.228Z,73.57
2019-02-07T18:19:11.740Z,73.90
2019-02-07T18:21:42.973Z,73.84
2019-02-07T18:24:14.448Z,73.66
2019-02-07T18:26:46.174Z,73.40
2019-02-07T18:29:17.649Z,73.60
2019-02-07T18:31:49.152Z,74.14
2019-02-07T18:34:20.693Z,74.12
2019-02-07T18:36:51.971Z,74.23
2019-02-07T18:39:23.537Z,74.34
2019-02-07T18:41:55.340Z,74.35
2019-02-07T18:44:27.010Z,74.14
2019-02-07T18:46:58.952Z,73.79
2019-02-07T18:49:30.385Z,73.82
2019-02-07T18:52:02.293Z,74.21
2019-02-07T18:54:34.455Z,73.31
2019-02-07T18:57:06.176Z,72.34
2019-02-07T18:59:37.937Z,72.71
2019-02-07T19:02:09.753Z,72.69
2019-02-07T19:04:41.064Z,72.76
2019-02-07T19:07:12.391Z,72.24
2019-02-07T19:09:46.164Z,71.67
2019-02-07T19:12:17.108Z,71.76
2019-02-07T19:14:48.799Z,71.53
2019-02-07T19:17:20.586Z,72.13
2019-02-07T19:19:52.272Z,71.86
2019-02-07T19:22:24.016Z,71.99
2019-02-07T19:24:55.560Z,71.97
2019-02-07T19:27:27.302Z,71.48
2019-02-07T19:29:58.778Z,72.02
2019-02-07T19:32:30.587Z,72.25
2019-02-07T19:35:02.044Z,72.62
2019-02-07T19:37:33.460Z,72.84
2019-02-07T19:40:06.726Z,73.00
2019-02-07T19:42:38.243Z,73.06
2019-02-07T19:45:10.911Z,72.96
2019-02-07T19:47:42.499Z,73.21
2019-02-07T19:50:17.727Z,73.32
2019-02-07T19:52:49.914Z,73.66
2019-02-07T19:55:23.446Z,73.14
2019-02-07T19:57:55.528Z,73.33
2019-02-07T20:00:29.293Z,73.17
2019-02-07T20:03:00.984Z,73.17
2019-02-07T20:05:32.714Z,73.15
2019-02-07T20:08:04.274Z,72.77
2019-02-07T20:10:36.380Z,72.77
2019-02-07T20:13:08.058Z,73.07
2019-02-07T20:15:41.257Z,73.00
2019-02-07T20:18:13.514Z,72.98
2019-02-07T20:20:45.100Z,73.24
2019-02-07T20:23:16.566Z,73.62
2019-02-07T20:25:48.129Z,73.83
2019-02-07T20:28:19.866Z,73.46
2019-02-07T20:33:22.829Z,73.88
2019-02-07T20:35:54.673Z,74.39
2019-02-07T20:38:26.997Z,74.20
2019-02-07T20:40:58.537Z,74.31
2019-02-07T20:43:30.251Z,74.08
2019-02-07T20:46:02.334Z,74.43
2019-02-07T20:48:33.901Z,74.66
2019-02-07T20:51:06.049Z,74.83
2019-02-07T20:53:37.510Z,74.71
2019-02-07T20:56:09.119Z,74.97
2019-02-07T20:58:40.818Z,74.73
2019-02-07T21:01:12.668Z,74.99
2019-02-07T21:03:44.187Z,75.33
2019-02-07T21:06:15.973Z,75.51
2019-02-07T21:08:47.258Z,75.13
2019-02-07T21:11:19.019Z,74.67
2019-02-07T21:13:50.459Z,74.96
2019-02-07T21:16:21.730Z,75.07
2019-02-07T21:18:53.141Z,73.74
2019-02-07T21:21:25.040Z,73.20
2019-02-07T21:23:56.694Z,72.88
2019-02-07T21:26:28.142Z,73.16
2019-02-07T21:28:59.481Z,72.76
2019-02-07T21:31:30.956Z,73.41
2019-02-07T21:34:02.920Z,72.87
2019-02-07T21:36:34.649Z,72.69
2019-02-07T21:39:10.809Z,72.82
2019-02-07T21:41:42.650Z,73.38
2019-02-07T21:44:14.060Z,73.56
2019-02-07T21:46:45.820Z,73.24
2019-02-07T21:49:17.627Z,73.00
2019-02-07T21:51:49.360Z,73.33
2019-02-07T21:54:20.662Z,72.74
2019-02-07T21:56:52.384Z,72.99
2019-02-07T21:59:24.179Z,73.20
2019-02-07T22:01:55.719Z,73.05
2019-02-07T22:04:27.096Z,72.81
2019-02-07T22:06:59.062Z,72.82
2019-02-07T22:09:30.599Z,72.47
2019-02-07T22:12:01.924Z,72.80
2019-02-07T22:14:33.700Z,72.27
2019-02-07T22:17:05.059Z,72.36
2019-02-07T22:19:36.790Z,72.58
2019-02-07T22:22:08.320Z,73.01
2019-02-07T22:24:39.763Z,73.48
2019-02-07T22:27:11.209Z,73.50
2019-02-07T22:29:42.564Z,73.50
2019-02-07T22:32:15.014Z,73.99
2019-02-07T22:34:46.598Z,73.99
2019-02-07T22:37:18.408Z,73.61
2019-02-07T22:39:49.898Z,74.39
2019-02-07T22:42:21.414Z,73.92
2019-02-07T22:44:52.772Z,73.59
2019-02-07T22:47:24.265Z,73.90
2019-02-07T22:49:55.591Z,73.88
2019-02-07T22:52:27.363Z,73.32
2019-02-07T22:54:58.907Z,73.55
2019-02-07T22:57:30.272Z,73.52
2019-02-07T23:00:01.572Z,73.76
2019-02-07T23:02:33.798Z,74.24
2019-02-07T23:05:05.675Z,74.51
2019-02-07T23:07:37.375Z,74.24
2019-02-07T23:10:09.095Z,74.19
2019-02-07T23:12:40.829Z,74.14
2019-02-07T23:15:12.403Z,74.60
2019-02-07T23:17:44.137Z,74.90
2019-02-07T23:20:16.010Z,75.03
2019-02-07T23:22:47.562Z,75.63
2019-02-07T23:25:19.253Z,75.63
2019-02-07T23:27:50.835Z,75.67
2019-02-07T23:30:22.579Z,75.68
2019-02-07T23:32:54.160Z,74.96
2019-02-07T23:35:25.746Z,74.63
2019-02-07T23:37:57.567Z,74.87
2019-02-07T23:40:30.098Z,75.76
2019-02-07T23:43:03.020Z,76.08
2019-02-07T23:45:34.780Z,75.77
2019-02-07T23:48:06.925Z,74.92
2019-02-07T23:50:38.592Z,74.81
2019-02-07T23:53:14.549Z,74.05
2019-02-07T23:55:43.344Z,73.99
2019-02-07T23:58:15.823Z,74.16
